Aérodrome :
LOGIN :

S'inscrire | Disclaimer

   EN    FR    IT 

 










Légende :    VFR   VFR Marginal   IFR   IFR Intensif   IFR Très Intensif
Visi : 
Plafond : 
>= 8 km
>= 3000ft
5 à 8 km
1000 à 3000 ft
1500m à 5 km
500 à 1000 ft
800 à 1500m
200 à 500 ft
< 800m
< 200 ft
Symboles :   Orages  Brouillard  Fortes neiges  Fortes précipitations  Vent > 20 kt
SIGMETs :   Divers  Orages  Givrage  Turbulence  Onde Orograph.  Cendres Volcan.







- Altitude de l'aérodrome : 348 ft
- Code IATA : STN
- Voir les cartes d'approche


EGSS - London Stansted

DERNIER METAR :
  • 190320Z AUTO 16003KT 4500 -RADZ BKN005 BKN014 BKN028 05/05 Q1018

METARs EXPIRÉS :
  • 190250Z AUTO 18003KT 6000 -RA OVC005 05/05 Q1018
  • 190220Z AUTO 18003KT 7000 -RA OVC006 06/05 Q1018
  • 190150Z AUTO 18004KT 8000 OVC007 06/05 Q1018
  • 190120Z AUTO 18004KT 9999 BKN007 OVC010 06/05 Q1018
  • 190050Z 19005KT 9999 BKN008 OVC015 06/04 Q1019

TAF TAF EGSS
Valide du 19 à 00h jusqu'au 20 à 06h UTC


182307Z 1900/2006 15004KT 9999 OVC025
BECMG 1900/1903 5000 -RADZ BKN005
TEMPO 1903/1924 2000 RADZ BKN002
PROB40 1904/1912 0300 FG OVC000
BECMG 1916/1919 33010KT
PROB40 1921/2006 0300 FG BKN001
ATIS : +44 1279 669 325
Pas de NOTAMs connus pour ce terrain.



MET'MAP, la Météo Aéronautique d'un coup d'oeil ! - Copyright ORBIFLY Décembre 2007 - Disclaimer

ORBIFLY MET'MAP TEAM :

Programmation & Développement : Alexandra Zaïnal
Conception & Développement : Baudouin d'Aumeries
Co-Programmation & Développement : Marc-Olivier Méhu
Soutien technique & logistique : Manuel Goepfert

Contact : metmap@orbifly.com




SOURCES & CREDITS :

   NOAA